Time;durP1;ratioP1;P1;durP2;ratioP2;P2;SDS_P1;SDS_P2;PMS_P1;PMS_P2;Temp;Humidity;BMP_temperature;BMP_pressure;BME280_temperature;BME280_humidity;BME280_pressure;Samples;Min_cycle;Max_cycle;Signal;HPM_P1;HPM_P2
2024/03/01 00:01:08;;;;;;;24.27;16.83;;;;;;;8.69;71.59;96619.34;5051678;28;20287;-84
2024/03/01 00:03:35;;;;;;;33.77;20.23;;;;;;;8.55;70.82;96582.00;5049780;28;20209;-84
2024/03/01 00:06:03;;;;;;;27.07;18.67;;;;;;;8.73;71.69;96626.47;5051083;28;20205;-84
2024/03/01 00:08:31;;;;;;;24.43;16.87;;;;;;;8.67;71.72;96613.50;5051211;28;20651;-84
2024/03/01 00:10:58;;;;;;;24.97;17.27;;;;;;;8.43;72.20;96608.03;5050043;28;20201;-84
2024/03/01 00:13:24;;;;;;;24.80;15.93;;;;;;;8.54;72.36;96622.84;5051579;28;20210;-84
2024/03/01 00:15:51;;;;;;;22.57;16.87;;;;;;;8.08;72.52;96575.25;5051785;28;20618;-84
2024/03/01 00:18:18;;;;;;;22.67;16.03;;;;;;;8.31;73.28;96618.94;5050196;28;20205;-84
2024/03/01 00:20:45;;;;;;;25.50;17.40;;;;;;;8.48;72.66;96632.69;5050802;28;20576;-83
2024/03/01 00:23:12;;;;;;;24.90;16.60;;;;;;;8.62;71.66;96640.84;5052466;28;20607;-84
2024/03/01 00:25:40;;;;;;;24.47;18.57;;;;;;;8.72;71.32;96640.81;5054519;28;20612;-83
2024/03/01 00:28:07;;;;;;;25.40;16.43;;;;;;;8.41;71.75;96623.44;5054678;28;20222;-84
2024/03/01 00:30:33;;;;;;;21.70;15.70;;;;;;;8.41;72.28;96626.88;5055249;28;20194;-84
2024/03/01 00:33:02;;;;;;;24.17;17.23;;;;;;;8.34;73.44;96616.53;5055534;28;20210;-84
2024/03/01 00:35:29;;;;;;;22.33;16.80;;;;;;;8.49;72.97;96620.22;5054095;28;20194;-84
2024/03/01 00:37:56;;;;;;;21.73;16.20;;;;;;;8.44;72.99;96622.88;5055000;28;20198;-84
2024/03/01 00:40:23;;;;;;;24.13;16.17;;;;;;;8.44;72.87;96613.09;5053563;28;20198;-84
2024/03/01 00:42:51;;;;;;;24.70;16.83;;;;;;;8.44;72.53;96569.84;5054729;28;20601;-84
2024/03/01 00:45:18;;;;;;;22.40;15.77;;;;;;;8.57;72.66;96601.88;5053684;28;20194;-84
2024/03/01 00:47:45;;;;;;;22.83;15.37;;;;;;;8.26;72.88;96576.53;5055038;28;20218;-84
2024/03/01 00:50:12;;;;;;;27.57;17.70;;;;;;;8.44;72.29;96605.13;5055001;28;20284;-84
2024/03/01 00:52:39;;;;;;;26.67;19.33;;;;;;;8.33;72.54;96588.44;5054566;28;20198;-85
2024/03/01 00:55:06;;;;;;;26.27;16.77;;;;;;;8.04;73.24;96553.00;5055127;28;20205;-83
2024/03/01 00:57:33;;;;;;;25.83;16.47;;;;;;;8.31;73.40;96565.88;5053220;28;20255;-84
2024/03/01 01:00:03;;;;;;;27.17;17.43;;;;;;;8.28;73.13;96553.97;5053703;28;20574;-85
2024/03/01 01:02:29;;;;;;;26.77;18.03;;;;;;;8.24;73.77;96560.09;5054379;28;20225;-85
2024/03/01 01:04:56;;;;;;;29.43;17.67;;;;;;;7.82;75.89;96571.88;5054887;28;20202;-84
2024/03/01 01:07:24;;;;;;;30.13;18.77;;;;;;;7.90;75.52;96579.28;5054270;28;20222;-85
2024/03/01 01:09:50;;;;;;;32.43;20.00;;;;;;;7.94;76.04;96548.53;5054198;28;20660;-84
2024/03/01 01:12:17;;;;;;;27.80;19.50;;;;;;;7.86;76.31;96527.91;5054202;28;20672;-85
2024/03/01 01:14:44;;;;;;;28.43;18.93;;;;;;;7.98;75.85;96535.53;5054295;28;20194;-85
2024/03/01 01:17:12;;;;;;;27.73;19.97;;;;;;;7.96;76.01;96533.16;5051913;28;20206;-85
2024/03/01 01:19:39;;;;;;;28.83;19.00;;;;;;;7.70;76.51;96535.06;5053962;28;20204;-84
2024/03/01 01:22:06;;;;;;;30.47;19.00;;;;;;;7.64;76.79;96532.72;5053409;28;20622;-84
2024/03/01 01:24:33;;;;;;;31.30;18.87;;;;;;;7.25;77.49;96486.44;5052932;28;20727;-84
2024/03/01 01:27:00;;;;;;;29.10;18.93;;;;;;;7.73;76.56;96508.03;5053774;28;20225;-84
2024/03/01 01:29:27;;;;;;;30.53;19.03;;;;;;;7.68;76.61;96496.69;5052333;28;20202;-84
2024/03/01 01:31:54;;;;;;;30.40;19.90;;;;;;;7.70;75.99;96466.19;5054417;28;20202;-84
2024/03/01 01:34:22;;;;;;;29.30;17.50;;;;;;;7.91;75.77;96479.38;5054033;28;20190;-84
2024/03/01 01:36:49;;;;;;;27.90;17.77;;;;;;;7.44;77.88;96472.63;5052891;28;20198;-85
2024/03/01 01:39:18;;;;;;;29.23;19.43;;;;;;;7.43;77.88;96487.72;5053520;28;20672;-85
2024/03/01 01:41:45;;;;;;;34.43;21.27;;;;;;;7.00;78.93;96503.09;5052617;28;20802;-88
2024/03/01 01:44:12;;;;;;;35.53;20.53;;;;;;;6.64;80.96;96523.44;5053576;28;20212;-87
2024/03/01 01:46:39;;;;;;;39.10;22.93;;;;;;;6.58;80.18;96459.19;5053740;28;20201;-87
2024/03/01 01:49:06;;;;;;;33.87;19.70;;;;;;;6.93;80.20;96497.31;5053593;28;20288;-87
2024/03/01 01:51:35;;;;;;;35.90;22.10;;;;;;;7.02;79.63;96485.13;5053788;28;20206;-86
2024/03/01 01:54:03;;;;;;;36.90;21.20;;;;;;;7.20;79.00;96465.28;5053441;28;20198;-84
2024/03/01 01:56:30;;;;;;;31.83;19.13;;;;;;;7.47;78.39;96450.91;5051841;28;20213;-84
2024/03/01 01:58:57;;;;;;;28.33;17.87;;;;;;;7.44;77.19;96443.50;5053009;28;20289;-84
2024/03/01 02:01:24;;;;;;;39.87;23.90;;;;;;;7.41;76.34;96428.16;5053079;28;20233;-86
2024/03/01 02:03:52;;;;;;;34.27;20.80;;;;;;;7.59;76.75;96459.34;5053240;28;20201;-85
2024/03/01 02:06:20;;;;;;;36.23;21.43;;;;;;;7.58;76.79;96452.44;5053664;28;20220;-84
2024/03/01 02:08:49;;;;;;;32.47;18.87;;;;;;;7.65;76.33;96468.06;5052096;28;20256;-85
2024/03/01 02:11:16;;;;;;;38.27;20.53;;;;;;;7.51;77.15;96479.25;5053083;28;20202;-85
2024/03/01 02:13:42;;;;;;;36.23;20.00;;;;;;;7.21;78.53;96484.59;5053172;28;20190;-84
2024/03/01 02:16:09;;;;;;;31.83;21.33;;;;;;;7.25;78.52;96456.53;5052807;28;20204;-84
2024/03/01 02:18:36;;;;;;;35.20;19.30;;;;;;;7.45;77.85;96476.88;5051727;28;20208;-84
2024/03/01 02:21:08;;;;;;;28.13;18.30;;;;;;;7.38;77.94;96468.41;5053323;28;20224;-84
2024/03/01 02:23:37;;;;;;;34.13;20.53;;;;;;;7.50;77.94;96482.94;5053003;28;20205;-84
2024/03/01 02:26:04;;;;;;;37.70;20.60;;;;;;;7.47;76.74;96440.31;5052962;28;20210;-85
2024/03/01 02:28:31;;;;;;;28.80;18.50;;;;;;;7.68;76.95;96470.97;5051434;28;20226;-84
2024/03/01 02:30:59;;;;;;;29.23;18.60;;;;;;;7.81;76.10;96478.34;5052483;28;20253;-84
2024/03/01 02:33:26;;;;;;;31.53;18.53;;;;;;;7.73;75.88;96483.41;5052162;28;20201;-84
2024/03/01 02:35:54;;;;;;;32.77;18.77;;;;;;;7.52;76.81;96456.19;5051836;28;20251;-84
2024/03/01 02:38:21;;;;;;;36.17;20.33;;;;;;;7.24;75.81;96409.91;5053011;28;20197;-84
2024/03/01 02:40:49;;;;;;;28.07;18.70;;;;;;;7.91;75.69;96468.78;5051593;28;20205;-84
2024/03/01 02:43:16;;;;;;;27.60;18.47;;;;;;;7.92;75.52;96486.25;5052924;28;20198;-84
2024/03/01 02:45:43;;;;;;;27.43;18.43;;;;;;;7.92;75.45;96487.03;5052004;28;20202;-84
2024/03/01 02:48:09;;;;;;;29.50;18.53;;;;;;;7.95;75.06;96467.97;5052256;28;20218;-84
2024/03/01 02:50:36;;;;;;;28.10;18.67;;;;;;;7.99;74.85;96474.31;5052815;28;20217;-84
2024/03/01 02:53:02;;;;;;;31.23;19.83;;;;;;;8.03;74.18;96479.84;5051560;28;20205;-84
2024/03/01 02:55:29;;;;;;;36.33;19.40;;;;;;;8.02;74.92;96479.06;5051648;28;20200;-84
2024/03/01 02:57:57;;;;;;;32.63;19.37;;;;;;;7.78;74.91;96443.63;5051512;28;20209;-84
2024/03/01 03:00:25;;;;;;;28.93;18.63;;;;;;;7.90;74.68;96432.72;5051398;28;20207;-84
2024/03/01 03:02:52;;;;;;;28.53;18.73;;;;;;;7.68;75.50;96435.75;5052807;28;20578;-84
2024/03/01 03:05:19;;;;;;;28.43;16.27;;;;;;;7.63;75.96;96443.69;5050982;28;20233;-86
2024/03/01 03:07:47;;;;;;;27.77;18.50;;;;;;;7.53;76.33;96469.16;5053027;28;20272;-86
2024/03/01 03:10:14;;;;;;;23.90;16.70;;;;;;;7.14;77.27;96415.25;5052272;28;20193;-87
2024/03/01 03:12:41;;;;;;;29.63;18.07;;;;;;;7.14;77.57;96397.50;5050844;28;20292;-86
2024/03/01 03:15:10;;;;;;;26.03;17.83;;;;;;;7.44;77.68;96454.09;5052371;28;20205;-87
2024/03/01 03:17:37;;;;;;;26.03;17.93;;;;;;;7.11;77.68;96413.91;5050667;28;20198;-85
2024/03/01 03:20:09;;;;;;;27.97;17.03;;;;;;;7.30;77.99;96435.31;5051829;28;20676;-86
2024/03/01 03:22:38;;;;;;;29.90;19.10;;;;;;;7.29;78.05;96425.81;5051994;28;20627;-86
2024/03/01 03:25:06;;;;;;;25.87;18.47;;;;;;;7.40;77.98;96459.13;5051718;28;20304;-85
2024/03/01 03:27:32;;;;;;;30.07;18.60;;;;;;;7.23;77.60;96434.81;5052374;28;20276;-85
2024/03/01 03:29:59;;;;;;;28.03;17.20;;;;;;;7.48;77.07;96471.81;5050656;28;20622;-85
2024/03/01 03:32:28;;;;;;;37.23;19.77;;;;;;;7.58;77.13;96477.06;5051064;28;20681;-85
2024/03/01 03:34:55;;;;;;;28.40;16.97;;;;;;;7.53;76.30;96449.84;5051126;28;20205;-85
2024/03/01 03:37:21;;;;;;;25.50;17.43;;;;;;;7.46;76.70;96460.69;5050813;28;20194;-84
2024/03/01 03:39:48;;;;;;;30.07;17.97;;;;;;;7.46;77.47;96450.09;5051732;28;20216;-85
2024/03/01 03:42:15;;;;;;;28.03;18.87;;;;;;;7.52;76.55;96442.94;5050349;28;20611;-85
2024/03/01 03:44:42;;;;;;;27.70;17.93;;;;;;;7.62;75.36;96440.25;5051203;28;20806;-85
2024/03/01 03:47:08;;;;;;;27.37;17.53;;;;;;;7.59;76.69;96432.88;5051770;28;20209;-84
2024/03/01 03:49:37;;;;;;;32.13;18.03;;;;;;;7.51;75.94;96391.84;5051734;28;20279;-84
2024/03/01 03:52:04;;;;;;;60.87;30.20;;;;;;;7.78;75.38;96419.78;5051432;28;20228;-85
2024/03/01 03:54:32;;;;;;;77.57;40.80;;;;;;;7.82;75.50;96392.50;5051797;28;20229;-84
2024/03/01 03:56:59;;;;;;;103.70;44.20;;;;;;;7.63;76.44;96380.13;5051416;28;20201;-85
2024/03/01 03:59:26;;;;;;;61.97;32.97;;;;;;;7.52;76.65;96388.13;5053870;28;20201;-85
2024/03/01 04:01:52;;;;;;;28.67;18.93;;;;;;;7.33;77.41;96377.34;5055038;28;20229;-86
2024/03/01 04:04:19;;;;;;;29.30;19.50;;;;;;;7.25;78.26;96396.44;5055682;28;20201;-85
2024/03/01 04:06:47;;;;;;;27.10;17.63;;;;;;;7.31;77.26;96392.69;5054856;28;20202;-84
2024/03/01 04:09:15;;;;;;;28.17;18.40;;;;;;;7.07;78.58;96395.13;5055311;28;20221;-85
2024/03/01 04:11:42;;;;;;;30.73;18.67;;;;;;;7.09;78.79;96389.59;5055144;28;20197;-85
2024/03/01 04:14:10;;;;;;;32.70;19.50;;;;;;;7.23;78.00;96395.88;5054063;28;20256;-85
2024/03/01 04:16:37;;;;;;;33.77;18.77;;;;;;;7.48;77.25;96402.97;5055363;28;20229;-85
2024/03/01 04:19:08;;;;;;;29.40;17.37;;;;;;;7.41;77.34;96383.94;5054366;28;20252;-84
2024/03/01 04:21:36;;;;;;;30.93;16.70;;;;;;;7.46;76.74;96389.19;5055979;28;20233;-88
2024/03/01 04:24:08;;;;;;;30.90;19.00;;;;;;;7.28;77.76;96395.06;5055912;28;20277;-89
2024/03/01 04:26:35;;;;;;;33.13;17.53;;;;;;;7.60;76.71;96392.06;5056494;28;20201;-88
2024/03/01 04:29:03;;;;;;;32.53;25.13;;;;;;;7.26;76.92;96329.19;5055768;28;20304;-93
2024/03/01 04:31:30;;;;;;;33.63;20.73;;;;;;;7.70;76.41;96393.88;5055624;28;20198;-91
2024/03/01 04:33:56;;;;;;;31.10;19.97;;;;;;;7.39;76.42;96348.97;5054825;28;20264;-92
2024/03/01 04:36:23;;;;;;;28.17;19.20;;;;;;;7.32;77.60;96398.81;5055236;28;20202;-92
2024/03/01 04:38:50;;;;;;;32.63;20.10;;;;;;;6.91;78.58;96361.84;5037672;28;20255;-92
2024/03/01 04:41:19;;;;;;;33.07;19.13;;;;;;;6.94;79.40;96400.19;5053100;28;20201;-92
2024/03/01 04:43:46;;;;;;;27.83;18.60;;;;;;;7.01;79.17;96387.50;5054938;28;20210;-93
2024/03/01 04:46:14;;;;;;;30.83;19.23;;;;;;;7.05;78.71;96397.28;5055164;28;20213;-88
2024/03/01 04:48:41;;;;;;;29.27;18.03;;;;;;;6.70;78.42;96328.53;5039168;28;20226;-93
2024/03/01 04:51:12;;;;;;;33.40;19.60;;;;;;;7.11;78.88;96382.94;5036978;28;20260;-92
2024/03/01 04:53:39;;;;;;;36.97;19.63;;;;;;;7.23;78.17;96377.34;5058704;28;20232;-93
2024/03/01 04:56:07;;;;;;;26.97;18.40;;;;;;;7.27;78.07;96394.28;5053118;28;20201;-91
2024/03/01 04:58:36;;;;;;;34.47;22.83;;;;;;;7.44;76.75;96388.69;5054329;28;20211;-91
2024/03/01 05:01:04;;;;;;;38.80;22.20;;;;;;;7.30;76.87;96391.09;5052962;28;20225;-92
2024/03/01 05:03:31;;;;;;;169.83;106.67;;;;;;;7.23;77.44;96385.31;5053166;28;20198;-92
2024/03/01 05:05:58;;;;;;;45.73;30.90;;;;;;;7.15;78.42;96385.06;5053604;28;20669;-91
2024/03/01 05:08:28;;;;;;;35.50;19.80;;;;;;;6.67;78.66;96332.53;5053776;28;20218;-91
2024/03/01 05:10:54;;;;;;;31.17;18.33;;;;;;;7.09;78.55;96389.59;5054398;28;20248;-90
2024/03/01 05:13:22;;;;;;;31.43;20.90;;;;;;;7.10;77.89;96386.66;5053665;28;20205;-91
2024/03/01 05:15:50;;;;;;;33.03;21.40;;;;;;;6.55;77.82;96295.78;5054380;28;20202;-89
2024/03/01 05:18:18;;;;;;;30.57;18.53;;;;;;;7.34;77.40;96394.81;5054215;28;20190;-91
2024/03/01 05:20:45;;;;;;;29.73;20.77;;;;;;;6.95;77.79;96365.53;5054499;28;20206;-92
2024/03/01 05:23:12;;;;;;;33.47;20.73;;;;;;;7.14;77.67;96388.78;5053814;28;20201;-94
2024/03/01 05:25:42;;;;;;;33.67;23.77;;;;;;;7.24;77.69;96392.19;5041411;28;20643;-95
2024/03/01 05:28:09;;;;;;;29.50;19.70;;;;;;;7.14;77.59;96392.22;5054326;28;20288;-92
2024/03/01 05:30:36;;;;;;;39.80;24.60;;;;;;;7.08;78.04;96409.94;5053484;28;20277;-93
2024/03/01 05:33:06;;;;;;;47.40;28.37;;;;;;;7.23;78.02;96408.34;5053451;28;20285;-94
2024/03/01 05:35:34;;;;;;;40.30;23.77;;;;;;;7.24;77.89;96408.09;5053217;28;20197;-92
2024/03/01 05:38:00;;;;;;;41.47;26.37;;;;;;;7.21;78.20;96402.53;5051409;28;20202;-85
2024/03/01 05:40:27;;;;;;;44.23;26.93;;;;;;;6.81;77.51;96322.16;5053224;28;20193;-84
2024/03/01 05:42:54;;;;;;;45.30;27.10;;;;;;;7.35;76.81;96395.59;5052028;28;20209;-85
2024/03/01 05:45:22;;;;;;;32.53;19.57;;;;;;;7.07;78.21;96399.63;5051249;28;20664;-84
2024/03/01 05:47:49;;;;;;;39.93;20.57;;;;;;;6.49;80.28;96426.38;5052247;28;20284;-86
2024/03/01 05:50:17;;;;;;;41.10;24.43;;;;;;;6.83;79.54;96407.34;5052010;28;20218;-85
2024/03/01 05:52:45;;;;;;;58.60;33.97;;;;;;;6.73;79.26;96365.03;5052953;28;20209;-85
2024/03/01 05:55:13;;;;;;;43.77;24.37;;;;;;;7.03;79.30;96395.94;5051884;28;20712;-85
2024/03/01 05:57:40;;;;;;;44.57;23.93;;;;;;;7.04;78.58;96416.84;5052175;28;20225;-85
2024/03/01 06:00:17;;;;;;;45.43;25.57;;;;;;;6.63;80.08;96426.66;5049188;28;20203;-88
2024/03/01 06:02:45;;;;;;;41.40;25.07;;;;;;;6.51;81.05;96424.28;5046105;28;20190;-85
2024/03/01 06:05:12;;;;;;;38.60;23.33;;;;;;;6.56;79.82;96368.75;5051011;28;20288;-86
2024/03/01 06:07:43;;;;;;;38.50;25.00;;;;;;;7.24;78.84;96418.66;5052819;28;20284;-85
2024/03/01 06:10:10;;;;;;;53.47;32.63;;;;;;;7.43;77.68;96410.13;5052102;28;20244;-85
2024/03/01 06:12:37;;;;;;;43.40;28.83;;;;;;;7.15;78.33;96411.53;5052153;28;20251;-85
2024/03/01 06:15:05;;;;;;;36.00;22.60;;;;;;;7.15;78.66;96417.63;5051874;28;20201;-86
2024/03/01 06:17:32;;;;;;;37.40;20.47;;;;;;;6.72;79.26;96400.47;5051758;28;20194;-86
2024/03/01 06:19:58;;;;;;;31.17;21.17;;;;;;;6.78;79.48;96410.00;5051261;28;20237;-87
2024/03/01 06:22:26;;;;;;;29.00;18.33;;;;;;;6.61;80.02;96418.97;5052050;28;20617;-87
2024/03/01 06:24:54;;;;;;;36.47;20.80;;;;;;;6.32;80.48;96391.50;5051876;28;20202;-86
2024/03/01 06:27:21;;;;;;;35.13;24.80;;;;;;;6.63;80.47;96417.94;5050740;28;20202;-88
2024/03/01 06:29:48;;;;;;;30.50;22.87;;;;;;;6.66;79.96;96407.63;5052024;28;20221;-87
2024/03/01 06:32:15;;;;;;;32.23;20.90;;;;;;;6.81;79.96;96396.22;5052188;28;20198;-86
2024/03/01 06:34:42;;;;;;;31.50;19.07;;;;;;;6.77;79.55;96385.38;5051816;28;20284;-85
2024/03/01 06:37:09;;;;;;;30.43;18.80;;;;;;;6.86;78.64;96394.38;5051838;28;20593;-86
2024/03/01 06:39:36;;;;;;;35.23;21.27;;;;;;;6.26;79.76;96352.88;5051755;28;20719;-86
2024/03/01 06:42:05;;;;;;;31.57;20.17;;;;;;;6.28;80.99;96419.50;5051856;28;20664;-86
2024/03/01 06:44:31;;;;;;;28.47;18.13;;;;;;;6.40;80.35;96429.81;5051802;28;20708;-86
2024/03/01 06:46:59;;;;;;;28.03;19.20;;;;;;;6.42;80.74;96427.69;5052165;28;20623;-85
2024/03/01 06:49:26;;;;;;;38.37;23.63;;;;;;;6.78;79.60;96429.31;5051735;28;20351;-85
2024/03/01 06:51:53;;;;;;;31.57;21.80;;;;;;;6.88;79.48;96423.22;5051822;28;20202;-85
2024/03/01 06:54:20;;;;;;;32.97;20.80;;;;;;;6.70;79.54;96427.19;5051586;28;20323;-85
2024/03/01 06:56:47;;;;;;;49.30;30.03;;;;;;;6.24;80.31;96381.44;5052028;28;20202;-86
2024/03/01 06:59:15;;;;;;;32.40;18.90;;;;;;;6.31;79.21;96380.13;5051414;28;20202;-85
2024/03/01 07:01:42;;;;;;;36.13;22.27;;;;;;;6.92;78.61;96418.19;5051487;28;20235;-85
2024/03/01 07:04:09;;;;;;;33.00;23.73;;;;;;;7.11;77.53;96440.38;5051541;28;20194;-85
2024/03/01 07:06:36;;;;;;;36.77;23.90;;;;;;;6.51;77.33;96363.47;5051444;28;20235;-85
2024/03/01 07:09:04;;;;;;;31.87;20.27;;;;;;;6.95;77.12;96418.44;5050959;28;20229;-86
2024/03/01 07:11:31;;;;;;;24.40;16.60;;;;;;;7.27;76.44;96443.78;5051665;28;20228;-86
2024/03/01 07:13:58;;;;;;;25.70;16.87;;;;;;;7.14;75.83;96437.22;5050958;28;20680;-86
2024/03/01 07:16:27;;;;;;;27.27;17.47;;;;;;;7.15;76.20;96432.72;5051527;28;20263;-86
2024/03/01 07:18:54;;;;;;;27.63;17.70;;;;;;;6.95;76.63;96410.50;5051226;28;20726;-86
2024/03/01 07:21:21;;;;;;;31.93;17.30;;;;;;;6.78;78.19;96458.41;5051495;28;20205;-87
2024/03/01 07:23:48;;;;;;;27.57;17.63;;;;;;;6.48;78.60;96422.16;5051182;28;20217;-86
2024/03/01 07:26:15;;;;;;;26.90;18.37;;;;;;;6.26;79.06;96369.53;5051689;28;20217;-88
2024/03/01 07:28:42;;;;;;;24.80;17.47;;;;;;;5.95;79.89;96400.41;5051349;28;20201;-87
2024/03/01 07:31:09;;;;;;;25.47;19.03;;;;;;;6.04;80.58;96425.28;5051182;28;20208;-86
2024/03/01 07:33:38;;;;;;;27.57;19.80;;;;;;;6.18;80.40;96420.25;5051328;28;20734;-87
2024/03/01 07:36:12;;;;;;;32.07;21.60;;;;;;;6.22;80.69;96468.91;5051524;28;20201;-87
2024/03/01 07:38:57;;;;;;;35.57;26.73;;;;;;;6.05;80.92;96439.28;5050832;28;20581;-88
2024/03/01 07:41:23;;;;;;;52.57;35.80;;;;;;;6.05;80.94;96416.28;5050849;28;20205;-87
2024/03/01 07:43:52;;;;;;;38.13;25.03;;;;;;;6.15;80.87;96441.91;5051315;28;20197;-88
2024/03/01 07:46:18;;;;;;;40.97;26.43;;;;;;;6.45;80.11;96450.97;5051271;28;20593;-88
2024/03/01 07:48:47;;;;;;;34.67;22.30;;;;;;;6.31;80.38;96453.31;5050772;28;20209;-86
2024/03/01 07:51:14;;;;;;;32.80;21.63;;;;;;;6.26;80.73;96466.53;5050044;28;20202;-88
2024/03/01 07:53:47;;;;;;;31.07;20.00;;;;;;;5.69;81.83;96401.34;5050282;28;20201;-87
2024/03/01 07:56:14;;;;;;;27.00;18.47;;;;;;;6.05;81.79;96442.69;5050753;28;20209;-88
2024/03/01 07:58:42;;;;;;;30.13;19.30;;;;;;;5.93;81.58;96418.38;5051254;28;20272;-87
2024/03/01 08:01:09;;;;;;;31.07;20.03;;;;;;;5.95;82.17;96453.22;5050437;28;20236;-86
2024/03/01 08:03:36;;;;;;;36.07;22.40;;;;;;;6.08;82.13;96465.19;5050915;28;20705;-87
2024/03/01 08:06:05;;;;;;;31.90;19.80;;;;;;;5.64;81.50;96388.94;5051074;28;20193;-88
2024/03/01 08:08:42;;;;;;;30.50;20.47;;;;;;;6.44;80.99;96466.03;5051211;28;20213;-88
2024/03/01 08:11:09;;;;;;;27.67;18.23;;;;;;;6.63;80.00;96457.63;5034850;28;20659;-85
2024/03/01 08:13:36;;;;;;;28.63;19.60;;;;;;;6.69;79.37;96454.69;5050564;28;20292;-86
2024/03/01 08:16:05;;;;;;;31.70;20.17;;;;;;;6.75;78.75;96450.22;5050482;28;20202;-86
2024/03/01 08:18:37;;;;;;;30.37;20.13;;;;;;;7.00;78.62;96434.31;5049615;28;20205;-85
2024/03/01 08:21:06;;;;;;;37.87;20.80;;;;;;;7.09;77.66;96450.47;5038875;28;20198;-85
2024/03/01 08:23:37;;;;;;;28.57;20.33;;;;;;;6.69;78.10;96427.44;5050198;28;20631;-85
2024/03/01 08:26:05;;;;;;;31.63;21.13;;;;;;;6.67;78.27;96440.16;5050382;28;20197;-86
2024/03/01 08:28:33;;;;;;;34.93;22.97;;;;;;;6.35;79.28;96398.91;5050779;28;20210;-85
2024/03/01 08:31:03;;;;;;;34.13;21.97;;;;;;;6.71;78.39;96428.00;5050026;28;20232;-85
2024/03/01 08:33:32;;;;;;;28.20;18.40;;;;;;;6.69;77.91;96395.72;5050669;28;20193;-85
2024/03/01 08:35:59;;;;;;;27.07;20.17;;;;;;;6.89;77.73;96414.19;5050750;28;20251;-85
2024/03/01 08:39:05;;;;;;;32.57;21.63;;;;;;;6.87;78.75;96424.28;5050270;28;20197;-85
2024/03/01 08:41:32;;;;;;;28.67;20.03;;;;;;;6.76;78.20;96389.09;5050074;28;20190;-85
2024/03/01 08:43:59;;;;;;;27.37;18.43;;;;;;;6.84;77.91;96393.06;5051967;28;20201;-85
2024/03/01 08:46:32;;;;;;;33.30;21.03;;;;;;;6.77;78.73;96437.50;5053863;28;20201;-85
2024/03/01 08:49:03;;;;;;;31.63;19.97;;;;;;;6.90;78.79;96434.34;5053999;28;20194;-85
2024/03/01 08:51:30;;;;;;;34.13;21.30;;;;;;;6.56;79.57;96397.84;5054038;28;20201;-85
2024/03/01 08:54:03;;;;;;;30.77;20.13;;;;;;;6.80;79.29;96444.91;5054159;28;20259;-85
2024/03/01 08:56:35;;;;;;;33.30;20.97;;;;;;;6.92;78.95;96416.31;5053887;28;20538;-85
2024/03/01 08:59:08;;;;;;;31.67;21.40;;;;;;;7.14;78.23;96410.75;5053706;28;20671;-83
2024/03/01 09:01:46;;;;;;;34.33;20.60;;;;;;;7.35;77.49;96409.63;5041794;28;20226;-85
2024/03/01 09:04:19;;;;;;;33.83;21.30;;;;;;;7.45;76.82;96392.91;5053524;28;20291;-84
2024/03/01 09:06:55;;;;;;;34.17;21.10;;;;;;;7.49;76.92;96417.00;5053933;28;20240;-85
2024/03/01 09:09:24;;;;;;;31.17;20.60;;;;;;;7.63;76.44;96422.50;5053646;28;20209;-85
2024/03/01 09:11:53;;;;;;;29.10;19.17;;;;;;;7.69;76.20;96424.09;5053327;28;20755;-85
2024/03/01 09:14:29;;;;;;;31.03;21.13;;;;;;;7.70;76.22;96429.09;5053111;28;20194;-84
2024/03/01 09:16:56;;;;;;;34.40;22.03;;;;;;;7.73;76.39;96419.81;5053255;28;20674;-84
2024/03/01 09:19:25;;;;;;;31.80;21.27;;;;;;;7.75;75.69;96410.56;5053012;28;20205;-84
2024/03/01 09:21:52;;;;;;;37.57;21.90;;;;;;;7.94;75.56;96412.59;5053359;28;20240;-84
2024/03/01 09:24:20;;;;;;;27.60;19.20;;;;;;;7.89;74.60;96389.53;5053203;28;20237;-84
2024/03/01 09:26:50;;;;;;;31.73;19.50;;;;;;;7.99;74.70;96412.56;5053527;28;20209;-84
2024/03/01 09:29:38;;;;;;;32.53;21.07;;;;;;;8.09;74.60;96412.47;5053062;28;20289;-85
2024/03/01 09:32:06;;;;;;;28.57;19.57;;;;;;;8.12;74.05;96414.59;5053358;28;20198;-84
2024/03/01 09:34:35;;;;;;;34.57;20.63;;;;;;;8.15;73.72;96407.97;5052993;28;20202;-83
2024/03/01 09:37:04;;;;;;;31.70;22.07;;;;;;;8.31;73.47;96407.56;5052976;28;20198;-84
2024/03/01 09:39:33;;;;;;;34.90;23.23;;;;;;;8.27;73.37;96408.41;5053141;28;20232;-84
2024/03/01 09:42:36;;;;;;;29.67;20.10;;;;;;;8.12;73.86;96411.16;5040319;28;20209;-85
2024/03/01 09:45:16;;;;;;;30.87;20.83;;;;;;;8.15;73.89;96424.66;5036492;28;20276;-84
2024/03/01 09:48:05;;;;;;;34.73;20.47;;;;;;;8.29;73.68;96422.19;5052587;28;20213;-84
2024/03/01 09:50:43;;;;;;;34.47;22.27;;;;;;;8.18;73.73;96421.47;5053435;28;20579;-84
2024/03/01 09:53:21;;;;;;;31.90;21.23;;;;;;;8.14;73.87;96419.63;5053034;28;20190;-84
2024/03/01 09:56:01;;;;;;;32.53;19.83;;;;;;;8.37;72.82;96418.16;5052538;28;20240;-84
2024/03/01 09:58:39;;;;;;;32.00;19.07;;;;;;;8.39;72.52;96421.34;5040455;28;20736;-84
2024/03/01 10:01:14;;;;;;;28.80;18.73;;;;;;;8.36;72.52;96420.00;5052833;28;20596;-84
2024/03/01 10:03:47;;;;;;;28.67;18.07;;;;;;;8.35;71.19;96378.66;5052635;28;20244;-84
2024/03/01 10:06:42;;;;;;;22.60;16.13;;;;;;;8.58;70.22;96409.00;5052416;28;20241;-84
2024/03/01 10:09:18;;;;;;;24.30;16.20;;;;;;;8.36;70.19;96366.97;5052260;28;20280;-84
2024/03/01 10:11:57;;;;;;;24.00;17.00;;;;;;;8.51;70.66;96379.34;5053017;28;20260;-84
2024/03/01 10:14:42;;;;;;;25.90;19.03;;;;;;;8.60;69.90;96376.91;5039687;28;20244;-84
2024/03/01 10:17:19;;;;;;;26.37;16.27;;;;;;;8.68;69.44;96373.66;5052705;28;20264;-83
2024/03/01 10:20:06;;;;;;;23.30;17.60;;;;;;;8.74;69.38;96378.63;5052105;28;20201;-84
2024/03/01 10:22:47;;;;;;;23.03;15.87;;;;;;;8.67;69.05;96388.78;5052615;28;20259;-85
2024/03/01 10:25:32;;;;;;;20.47;13.33;;;;;;;8.52;69.74;96416.22;5051808;28;20229;-85
2024/03/01 10:28:09;;;;;;;19.90;13.87;;;;;;;8.41;70.20;96404.09;5052337;28;20608;-86
2024/03/01 10:30:46;;;;;;;19.43;14.73;;;;;;;8.65;69.80;96398.88;5037930;28;20593;-85
2024/03/01 10:33:24;;;;;;;19.60;13.53;;;;;;;8.67;69.50;96401.25;5052202;28;20197;-85
2024/03/01 10:36:03;;;;;;;19.90;13.73;;;;;;;8.15;70.31;96357.59;5051861;28;20204;-85
2024/03/01 10:38:38;;;;;;;22.13;16.03;;;;;;;7.85;70.69;96298.41;5051968;28;20205;-86
2024/03/01 10:41:18;;;;;;;22.37;19.60;;;;;;;8.50;70.55;96383.09;5052059;28;20558;-86
2024/03/01 10:43:56;;;;;;;23.20;14.97;;;;;;;8.37;71.14;96392.47;5052225;28;20197;-86
2024/03/01 10:46:33;;;;;;;16.97;13.40;;;;;;;8.12;72.20;96350.97;5051517;28;20225;-87
2024/03/01 10:49:07;;;;;;;29.43;18.43;;;;;;;8.32;72.16;96347.38;5051870;28;20202;-86
2024/03/01 10:51:41;;;;;;;24.37;17.40;;;;;;;8.70;72.20;96344.97;5051625;28;20354;-85
2024/03/01 10:54:13;;;;;;;26.57;20.23;;;;;;;8.57;72.26;96351.72;5051384;28;20201;-85
2024/03/01 10:56:40;;;;;;;23.67;15.80;;;;;;;8.42;72.73;96349.19;5051949;28;20201;-86
2024/03/01 10:59:15;;;;;;;19.33;13.20;;;;;;;8.49;72.85;96354.97;5051654;28;20198;-85
2024/03/01 11:01:50;;;;;;;19.83;11.63;;;;;;;8.57;71.84;96368.44;5051834;28;20287;-85
2024/03/01 11:04:28;;;;;;;23.90;13.10;;;;;;;8.67;72.03;96364.88;5051546;28;20228;-85
2024/03/01 11:07:08;;;;;;;15.07;11.87;;;;;;;8.55;70.95;96365.25;5051019;28;20680;-86
2024/03/01 11:09:41;;;;;;;14.03;10.57;;;;;;;8.71;70.03;96350.03;5051411;28;20198;-85
2024/03/01 11:12:16;;;;;;;13.97;11.10;;;;;;;8.79;69.90;96345.97;5051468;28;20260;-85
2024/03/01 11:14:49;;;;;;;14.03;10.63;;;;;;;8.77;69.43;96309.09;5051292;28;20275;-84
2024/03/01 11:17:18;;;;;;;13.10;9.53;;;;;;;8.99;68.50;96313.13;5050916;28;20198;-85
2024/03/01 11:19:49;;;;;;;14.93;11.47;;;;;;;8.99;68.81;96315.78;5051255;28;20208;-84
2024/03/01 11:22:22;;;;;;;18.10;12.27;;;;;;;9.07;68.39;96315.94;5047140;28;20203;-83
2024/03/01 11:24:55;;;;;;;17.87;11.33;;;;;;;9.24;68.11;96327.97;5043606;28;20688;-84
2024/03/01 11:27:28;;;;;;;14.43;10.83;;;;;;;9.13;68.52;96321.97;5050824;28;20233;-85
2024/03/01 11:30:04;;;;;;;14.40;11.23;;;;;;;9.13;68.00;96306.03;5051001;28;20202;-84
2024/03/01 11:32:36;;;;;;;17.67;11.80;;;;;;;9.36;67.37;96304.44;5051113;28;20710;-83
2024/03/01 11:35:11;;;;;;;15.60;11.97;;;;;;;9.40;66.97;96304.66;5051127;28;20678;-84